createdAt,value
2023-03-06T00:00:00.761Z,6.51
2023-03-06T00:01:00.753Z,6.49
2023-03-06T00:02:00.740Z,6.51
2023-03-06T00:03:00.750Z,6.51
2023-03-06T00:04:00.788Z,6.51
2023-03-06T00:05:00.706Z,6.59
2023-03-06T00:06:00.772Z,6.59
2023-03-06T00:07:00.708Z,6.57
2023-03-06T00:08:00.914Z,6.56
2023-03-06T00:09:00.661Z,6.57
2023-03-06T00:10:00.636Z,6.57
2023-03-06T00:11:00.637Z,6.62
2023-03-06T00:12:00.617Z,6.60
2023-03-06T00:13:00.626Z,6.60
2023-03-06T00:14:00.619Z,6.60
2023-03-06T00:15:00.597Z,6.60
2023-03-06T00:16:00.654Z,6.62
2023-03-06T00:17:00.577Z,6.57
2023-03-06T00:18:00.547Z,6.52
2023-03-06T00:19:00.562Z,6.46
2023-03-06T00:20:00.566Z,6.44
2023-03-06T00:21:00.553Z,6.44
2023-03-06T00:22:00.518Z,6.52
2023-03-06T00:23:00.517Z,6.52
2023-03-06T00:24:00.538Z,6.54
2023-03-06T00:25:00.468Z,6.54
2023-03-06T00:26:00.475Z,6.46
2023-03-06T00:27:00.487Z,6.39
2023-03-06T00:28:00.447Z,6.45
2023-03-06T00:29:00.427Z,6.52
2023-03-06T00:30:00.465Z,6.52
2023-03-06T00:31:00.439Z,6.52
2023-03-06T00:32:00.484Z,6.57
2023-03-06T00:33:00.405Z,6.56
2023-03-06T00:34:00.400Z,6.52
2023-03-06T00:35:00.362Z,6.46
2023-03-06T00:36:00.367Z,6.48
2023-03-06T00:37:00.333Z,6.46
2023-03-06T00:38:00.326Z,6.48
2023-03-06T00:39:00.337Z,6.46
2023-03-06T00:40:00.297Z,6.46
2023-03-06T00:41:00.297Z,6.48
2023-03-06T00:42:00.316Z,6.49
2023-03-06T00:43:00.273Z,6.52
2023-03-06T00:44:00.267Z,6.54
2023-03-06T00:45:00.260Z,6.51
2023-03-06T00:46:00.285Z,6.54
2023-03-06T00:47:00.237Z,6.51
2023-03-06T00:48:00.225Z,6.51
2023-03-06T00:49:00.200Z,6.52
2023-03-06T00:50:00.421Z,6.54
2023-03-06T00:51:00.186Z,6.51
2023-03-06T00:52:00.186Z,6.49
2023-03-06T00:53:00.189Z,6.48
2023-03-06T00:54:00.130Z,6.51
2023-03-06T00:55:00.167Z,6.54
2023-03-06T00:56:00.125Z,6.56
2023-03-06T00:57:00.131Z,6.56
2023-03-06T00:58:00.105Z,6.52
2023-03-06T00:59:00.109Z,6.54
2023-03-06T01:00:00.104Z,6.57
2023-03-06T01:01:00.111Z,6.57
2023-03-06T01:02:00.129Z,6.56
2023-03-06T01:03:00.039Z,6.49
2023-03-06T01:04:00.053Z,6.51
2023-03-06T01:05:00.020Z,6.54
2023-03-06T01:06:00.004Z,6.57
2023-03-06T01:06:59.997Z,6.60
2023-03-06T01:07:59.972Z,6.62
2023-03-06T01:08:59.970Z,6.59
2023-03-06T01:09:59.975Z,6.56
2023-03-06T01:10:59.940Z,6.60
2023-03-06T01:11:59.926Z,6.57
2023-03-06T01:12:59.926Z,6.60
2023-03-06T01:13:59.906Z,6.62
2023-03-06T01:14:59.906Z,6.63
2023-03-06T01:15:59.916Z,6.64
2023-03-06T01:16:59.875Z,6.67
2023-03-06T01:17:59.864Z,6.66
2023-03-06T01:18:59.849Z,6.66
2023-03-06T01:19:59.853Z,6.60
2023-03-06T01:20:59.816Z,6.56
2023-03-06T01:21:59.837Z,6.60
2023-03-06T01:22:59.823Z,6.66
2023-03-06T01:23:59.800Z,6.67
2023-03-06T01:24:59.782Z,6.67
2023-03-06T01:25:59.763Z,6.69
2023-03-06T01:26:59.760Z,6.69
2023-03-06T01:27:59.799Z,6.69
2023-03-06T01:28:59.974Z,6.72
2023-03-06T01:29:59.713Z,6.72
2023-03-06T01:30:59.702Z,6.74
2023-03-06T01:31:59.895Z,6.72
2023-03-06T01:32:59.698Z,6.74
2023-03-06T01:33:59.702Z,6.75
2023-03-06T01:34:59.683Z,6.74
2023-03-06T01:35:59.652Z,6.74
2023-03-06T01:36:59.644Z,6.72
2023-03-06T01:37:59.635Z,6.69
2023-03-06T01:38:59.633Z,6.67
2023-03-06T01:39:59.634Z,6.66
2023-03-06T01:40:59.855Z,6.70
2023-03-06T01:41:59.594Z,6.69
2023-03-06T01:42:59.586Z,6.63
2023-03-06T01:43:59.583Z,6.64
2023-03-06T01:44:59.586Z,6.69
2023-03-06T01:45:59.568Z,6.64
2023-03-06T01:46:59.549Z,6.64
2023-03-06T01:47:59.543Z,6.60
2023-03-06T01:48:59.523Z,6.64
2023-03-06T01:49:59.499Z,6.67
2023-03-06T01:50:59.507Z,6.69
2023-03-06T01:51:59.486Z,6.72
2023-03-06T01:52:59.476Z,6.75
2023-03-06T01:53:59.717Z,6.79
2023-03-06T01:54:59.437Z,6.77
2023-03-06T01:55:59.462Z,6.78
2023-03-06T01:56:59.436Z,6.75
2023-03-06T01:57:59.418Z,6.75
2023-03-06T01:58:59.417Z,6.69
2023-03-06T01:59:59.412Z,6.67
2023-03-06T02:00:59.407Z,6.69
2023-03-06T02:01:59.405Z,6.69
2023-03-06T02:02:59.365Z,6.69
2023-03-06T02:03:59.360Z,6.72
2023-03-06T02:04:59.335Z,6.72
2023-03-06T02:05:59.320Z,6.75
2023-03-06T02:06:59.307Z,6.77
2023-03-06T02:07:59.337Z,6.78
2023-03-06T02:08:59.299Z,6.81
2023-03-06T02:09:59.277Z,6.78
2023-03-06T02:10:59.276Z,6.77
2023-03-06T02:11:59.262Z,6.78
2023-03-06T02:12:59.271Z,6.74
2023-03-06T02:13:59.229Z,6.67
2023-03-06T02:14:59.229Z,6.59
2023-03-06T02:15:59.238Z,6.60
2023-03-06T02:16:59.224Z,6.64
2023-03-06T02:17:59.188Z,6.72
2023-03-06T02:18:59.222Z,6.77
2023-03-06T02:19:59.173Z,6.81
2023-03-06T02:20:59.170Z,6.85
2023-03-06T02:21:59.138Z,6.87
2023-03-06T02:22:59.155Z,6.88
2023-03-06T02:23:59.133Z,6.87
2023-03-06T02:24:59.128Z,6.85
2023-03-06T02:25:59.349Z,6.81
2023-03-06T02:26:59.099Z,6.74
2023-03-06T02:27:59.078Z,6.70
2023-03-06T02:28:59.077Z,6.74
2023-03-06T02:29:59.069Z,6.77
2023-03-06T02:30:59.072Z,6.81
2023-03-06T02:31:59.190Z,6.77
2023-03-06T02:32:59.032Z,6.75
2023-03-06T02:33:59.020Z,6.81
2023-03-06T02:34:59.008Z,6.82
2023-03-06T02:35:59.067Z,6.77
2023-03-06T02:36:58.990Z,6.82
2023-03-06T02:37:59.219Z,6.84
2023-03-06T02:38:58.963Z,6.88
2023-03-06T02:39:58.959Z,6.89
2023-03-06T02:40:58.933Z,6.82
2023-03-06T02:41:58.941Z,6.81
2023-03-06T02:42:58.920Z,6.85
2023-03-06T02:43:58.917Z,6.84
2023-03-06T02:44:58.886Z,6.82
2023-03-06T02:45:58.916Z,6.78
2023-03-06T02:46:58.884Z,6.77
2023-03-06T02:47:58.862Z,6.72
2023-03-06T02:48:58.837Z,6.74
2023-03-06T02:49:58.828Z,6.66
2023-03-06T02:50:58.818Z,6.70
2023-03-06T02:51:58.809Z,6.77
2023-03-06T02:52:58.824Z,6.81
2023-03-06T02:53:58.781Z,6.79
2023-03-06T02:54:59.012Z,6.77
2023-03-06T02:55:58.767Z,6.78
2023-03-06T02:56:58.765Z,6.78
2023-03-06T02:57:58.757Z,6.78
2023-03-06T02:58:58.720Z,6.72
2023-03-06T02:59:58.730Z,6.72
2023-03-06T03:00:58.704Z,6.70
2023-03-06T03:02:05.818Z,6.72
2023-03-06T03:02:58.683Z,6.77
2023-03-06T03:03:58.689Z,6.78
2023-03-06T03:04:58.658Z,6.78
2023-03-06T03:05:58.638Z,6.77
2023-03-06T03:06:58.640Z,6.72
2023-03-06T03:07:58.626Z,6.52
2023-03-06T03:08:58.604Z,6.62
2023-03-06T03:09:58.598Z,6.70
2023-03-06T03:10:58.586Z,6.74
2023-03-06T03:11:58.570Z,6.79
2023-03-06T03:12:58.569Z,6.84
2023-03-06T03:13:58.546Z,6.84
2023-03-06T03:14:58.556Z,6.79
2023-03-06T03:15:58.548Z,6.84
2023-03-06T03:16:58.506Z,6.81
2023-03-06T03:17:58.496Z,6.88
2023-03-06T03:18:58.488Z,6.88
2023-03-06T03:19:58.482Z,6.82
2023-03-06T03:20:58.498Z,6.85
2023-03-06T03:21:58.460Z,6.85
2023-03-06T03:22:58.452Z,6.88
2023-03-06T03:23:58.431Z,6.87
2023-03-06T03:24:58.430Z,6.93
2023-03-06T03:25:58.409Z,6.92
2023-03-06T03:26:58.438Z,6.74
2023-03-06T03:27:58.390Z,6.60
2023-03-06T03:28:58.380Z,6.67
2023-03-06T03:29:58.386Z,6.69
2023-03-06T03:30:58.387Z,6.72
2023-03-06T03:31:58.349Z,6.70
2023-03-06T03:32:58.361Z,6.62
2023-03-06T03:33:58.322Z,6.59
2023-03-06T03:34:58.321Z,6.48
2023-03-06T03:35:58.311Z,6.49
2023-03-06T03:36:58.289Z,6.59
2023-03-06T03:37:58.302Z,6.60
2023-03-06T03:38:58.260Z,6.57
2023-03-06T03:39:58.260Z,6.46
2023-03-06T03:40:58.240Z,6.22
2023-03-06T03:41:58.235Z,6.09
2023-03-06T03:42:58.221Z,6.17
2023-03-06T03:43:58.223Z,6.20
2023-03-06T03:44:58.205Z,6.27
2023-03-06T03:45:58.184Z,6.36
2023-03-06T03:46:58.181Z,6.41
2023-03-06T03:47:58.161Z,6.36
2023-03-06T03:48:58.218Z,6.38
2023-03-06T03:49:58.144Z,6.39
2023-03-06T03:50:58.136Z,6.38
2023-03-06T03:51:58.111Z,6.39
2023-03-06T03:52:58.112Z,6.41
2023-03-06T03:53:58.118Z,6.38
2023-03-06T03:54:58.126Z,6.38
2023-03-06T03:55:58.090Z,6.35
2023-03-06T03:56:58.067Z,6.36
2023-03-06T03:57:58.048Z,6.33
2023-03-06T03:58:58.037Z,6.31
2023-03-06T03:59:58.027Z,6.35
2023-03-06T04:00:58.028Z,6.35
2023-03-06T04:01:58.004Z,6.22
2023-03-06T04:02:58.002Z,6.26
2023-03-06T04:03:57.981Z,6.22
2023-03-06T04:04:58.034Z,6.20
2023-03-06T04:05:58.026Z,6.26
2023-03-06T04:06:57.962Z,6.22
2023-03-06T04:07:57.934Z,6.24
2023-03-06T04:08:57.918Z,6.22
2023-03-06T04:09:57.906Z,6.26
2023-03-06T04:10:57.901Z,6.26
2023-03-06T04:11:57.884Z,6.22
2023-03-06T04:12:57.903Z,6.17
2023-03-06T04:13:57.865Z,6.16
2023-03-06T04:14:57.877Z,6.17
2023-03-06T04:15:57.898Z,6.22
2023-03-06T04:16:57.826Z,6.26
2023-03-06T04:17:57.815Z,6.27
2023-03-06T04:18:57.833Z,6.27
2023-03-06T04:19:57.806Z,6.28
2023-03-06T04:20:57.788Z,6.26
2023-03-06T04:21:57.773Z,6.27
2023-03-06T04:22:57.766Z,6.26
2023-03-06T04:23:57.766Z,6.27
2023-03-06T04:24:57.744Z,6.27
2023-03-06T04:25:57.723Z,6.27
2023-03-06T04:26:57.727Z,6.24
2023-03-06T04:27:57.703Z,6.19
2023-03-06T04:28:57.684Z,6.17
2023-03-06T04:29:57.706Z,6.14
2023-03-06T04:30:57.681Z,6.19
2023-03-06T04:31:57.655Z,6.20
2023-03-06T04:32:57.662Z,6.17
2023-03-06T04:33:57.639Z,6.12
2023-03-06T04:34:57.625Z,6.08
2023-03-06T04:35:57.699Z,6.08
2023-03-06T04:36:57.612Z,6.12
2023-03-06T04:37:57.585Z,6.16
2023-03-06T04:38:57.637Z,6.16
2023-03-06T04:39:57.568Z,6.17
2023-03-06T04:40:57.589Z,6.14
2023-03-06T04:41:57.547Z,6.16
2023-03-06T04:42:57.538Z,6.12
2023-03-06T04:43:57.525Z,6.11
2023-03-06T04:44:57.532Z,6.12
2023-03-06T04:45:57.526Z,6.11
2023-03-06T04:46:57.519Z,6.09
2023-03-06T04:47:57.477Z,6.11
2023-03-06T04:48:57.480Z,6.11
2023-03-06T04:49:57.460Z,6.09
2023-03-06T04:50:57.448Z,6.09
2023-03-06T04:51:57.439Z,6.09
2023-03-06T04:52:57.436Z,6.11
2023-03-06T04:53:57.406Z,6.11
2023-03-06T04:54:57.429Z,6.11
2023-03-06T04:55:57.385Z,6.11
2023-03-06T04:56:57.384Z,6.12
2023-03-06T04:57:57.418Z,6.11
2023-03-06T04:58:57.380Z,6.12
2023-03-06T04:59:57.350Z,6.14
2023-03-06T05:00:57.426Z,6.14
2023-03-06T05:01:57.379Z,6.12
2023-03-06T05:02:57.372Z,6.09
2023-03-06T05:03:57.312Z,6.09
2023-03-06T05:04:57.361Z,6.09
2023-03-06T05:05:57.272Z,6.09
2023-03-06T05:06:57.272Z,6.11
2023-03-06T05:07:57.265Z,6.09
2023-03-06T05:08:57.231Z,6.11
2023-03-06T05:09:57.243Z,6.09
2023-03-06T05:10:57.241Z,6.09
2023-03-06T05:11:57.200Z,6.08
2023-03-06T05:12:57.194Z,6.07
2023-03-06T05:13:57.180Z,6.05
2023-03-06T05:14:57.191Z,6.07
2023-03-06T05:15:57.160Z,6.04
2023-03-06T05:16:57.141Z,6.04
2023-03-06T05:17:57.142Z,5.97
2023-03-06T05:18:57.118Z,5.98
2023-03-06T05:19:57.110Z,5.94
2023-03-06T05:20:57.119Z,5.86
2023-03-06T05:21:57.088Z,5.93
2023-03-06T05:22:57.078Z,5.97
2023-03-06T05:23:57.067Z,5.94
2023-03-06T05:24:57.081Z,5.98
2023-03-06T05:25:57.039Z,5.98
2023-03-06T05:26:57.039Z,5.99
2023-03-06T05:27:57.030Z,6.05
2023-03-06T05:28:57.007Z,6.04
2023-03-06T05:29:57.020Z,5.99
2023-03-06T05:30:56.987Z,5.98
2023-03-06T05:31:57.081Z,5.97
2023-03-06T05:32:56.958Z,5.98
2023-03-06T05:33:56.967Z,5.98
2023-03-06T05:34:56.936Z,5.97
2023-03-06T05:35:56.947Z,5.98
2023-03-06T05:36:56.924Z,5.99
2023-03-06T05:37:56.938Z,6.02
2023-03-06T05:38:56.889Z,6.01
2023-03-06T05:39:56.889Z,5.94
2023-03-06T05:40:56.879Z,5.94
2023-03-06T05:41:56.868Z,5.94
2023-03-06T05:42:56.862Z,5.99
2023-03-06T05:43:56.864Z,5.94
2023-03-06T05:44:56.838Z,5.97
2023-03-06T05:45:56.922Z,5.97
2023-03-06T05:46:56.812Z,5.94
2023-03-06T05:47:56.799Z,5.97
2023-03-06T05:48:56.784Z,5.91
2023-03-06T05:49:56.792Z,5.93
2023-03-06T05:50:56.772Z,5.94
2023-03-06T05:51:56.756Z,5.79
2023-03-06T05:52:56.741Z,5.72
2023-03-06T05:53:56.732Z,5.72
2023-03-06T05:54:56.739Z,5.82
2023-03-06T05:55:56.700Z,5.76
2023-03-06T05:56:56.690Z,5.72
2023-03-06T05:57:56.691Z,5.73
2023-03-06T05:58:56.669Z,5.75
2023-03-06T05:59:56.657Z,5.79
2023-03-06T06:00:56.696Z,5.73
2023-03-06T06:01:56.723Z,5.73
2023-03-06T06:02:56.620Z,5.71
2023-03-06T06:03:56.641Z,5.76
2023-03-06T06:04:56.596Z,5.75
2023-03-06T06:05:56.588Z,5.79
2023-03-06T06:06:56.620Z,5.82
2023-03-06T06:07:56.568Z,5.82
2023-03-06T06:08:56.556Z,5.76
2023-03-06T06:09:56.551Z,5.82
2023-03-06T06:10:56.537Z,5.75
2023-03-06T06:11:56.547Z,5.76
2023-03-06T06:12:56.507Z,5.72
2023-03-06T06:13:56.510Z,5.73
2023-03-06T06:14:56.486Z,5.75
2023-03-06T06:15:56.562Z,5.80
2023-03-06T06:16:56.465Z,5.80
2023-03-06T06:17:56.495Z,5.86
2023-03-06T06:18:56.444Z,5.89
2023-03-06T06:19:56.433Z,5.86
2023-03-06T06:20:56.425Z,5.82
2023-03-06T06:21:56.404Z,5.89
2023-03-06T06:22:56.398Z,5.89
2023-03-06T06:23:56.403Z,5.87
2023-03-06T06:24:56.379Z,5.87
2023-03-06T06:25:56.366Z,5.87
2023-03-06T06:26:56.345Z,5.84
2023-03-06T06:27:56.346Z,5.86
2023-03-06T06:28:56.936Z,5.90
2023-03-06T06:29:56.334Z,5.94
2023-03-06T06:30:56.822Z,5.94
2023-03-06T06:31:56.304Z,5.86
2023-03-06T06:32:56.287Z,5.72
2023-03-06T06:33:56.276Z,5.71
2023-03-06T06:34:56.268Z,5.71
2023-03-06T06:35:56.685Z,5.69
2023-03-06T06:36:56.233Z,5.73
2023-03-06T06:37:56.256Z,5.86
2023-03-06T06:38:56.213Z,5.90
2023-03-06T06:39:56.204Z,5.93
2023-03-06T06:41:30.763Z,5.98
2023-03-06T06:42:09.527Z,5.97
2023-03-06T06:42:57.175Z,5.94
2023-03-06T06:43:58.673Z,5.91
2023-03-06T06:44:56.143Z,5.86
2023-03-06T06:46:08.869Z,5.86
2023-03-06T06:47:21.824Z,5.87
2023-03-06T06:47:57.171Z,5.89
2023-03-06T06:48:56.102Z,5.94
2023-03-06T06:49:56.104Z,5.93
2023-03-06T06:50:56.103Z,6.01
2023-03-06T06:51:56.072Z,6.08
2023-03-06T06:52:56.116Z,6.08
2023-03-06T06:53:56.044Z,6.12
2023-03-06T06:54:56.034Z,6.16
2023-03-06T06:55:56.023Z,6.08
2023-03-06T06:56:56.013Z,6.11
2023-03-06T06:57:56.012Z,6.16
2023-03-06T06:59:01.338Z,6.12
2023-03-06T06:59:56.981Z,6.12
2023-03-06T07:00:55.965Z,6.16
2023-03-06T07:01:55.964Z,6.19
2023-03-06T07:02:55.943Z,6.26
2023-03-06T07:03:55.978Z,6.22
2023-03-06T07:05:04.340Z,6.31
2023-03-06T07:05:56.913Z,6.27
2023-03-06T07:06:55.901Z,6.31
2023-03-06T07:07:55.892Z,6.39
2023-03-06T07:08:56.668Z,6.45
2023-03-06T07:09:55.871Z,6.44
2023-03-06T07:10:55.892Z,6.44
2023-03-06T07:11:55.846Z,6.49
2023-03-06T07:12:55.837Z,6.54
2023-03-06T07:13:55.821Z,6.52
2023-03-06T07:14:55.811Z,6.54
2023-03-06T07:15:55.852Z,6.62
2023-03-06T07:16:55.801Z,6.72
2023-03-06T07:17:55.788Z,6.81
2023-03-06T07:18:55.767Z,6.88
2023-03-06T07:19:55.762Z,6.87
2023-03-06T07:20:55.749Z,6.85
2023-03-06T07:21:55.766Z,6.92
2023-03-06T07:22:55.728Z,6.96
2023-03-06T07:23:55.713Z,6.99
2023-03-06T07:24:55.702Z,6.97
2023-03-06T07:25:55.702Z,6.99
2023-03-06T07:26:55.687Z,6.96
2023-03-06T07:27:55.732Z,6.97
2023-03-06T07:28:55.698Z,6.96
2023-03-06T07:29:55.650Z,6.95
2023-03-06T07:30:55.672Z,7.03
2023-03-06T07:31:55.630Z,7.10
2023-03-06T07:32:55.631Z,7.14
2023-03-06T07:33:55.652Z,7.17
2023-03-06T07:35:12.943Z,7.18
2023-03-06T07:35:56.591Z,7.24
2023-03-06T07:36:55.571Z,7.40
2023-03-06T07:37:55.568Z,7.60
2023-03-06T07:38:55.554Z,7.66
2023-03-06T07:39:55.563Z,7.58
2023-03-06T07:40:55.540Z,7.51
2023-03-06T07:41:55.542Z,7.40
2023-03-06T07:42:57.741Z,7.42
2023-03-06T07:43:56.499Z,7.39
2023-03-06T07:44:55.485Z,7.45
2023-03-06T07:45:55.606Z,7.58
2023-03-06T07:46:55.539Z,7.67
2023-03-06T07:47:55.448Z,7.50
2023-03-06T07:48:55.434Z,7.57
2023-03-06T07:49:55.426Z,7.67
2023-03-06T07:50:55.413Z,7.67
2023-03-06T07:51:55.416Z,7.58
2023-03-06T07:52:55.386Z,7.63
2023-03-06T07:53:55.388Z,7.76
2023-03-06T07:54:55.367Z,7.67
2023-03-06T07:55:55.362Z,7.51
2023-03-06T07:56:55.366Z,7.48
2023-03-06T07:57:55.335Z,7.42
2023-03-06T07:58:56.148Z,7.40
2023-03-06T07:59:55.349Z,7.43
2023-03-06T08:00:55.299Z,7.47
2023-03-06T08:01:55.302Z,7.53
2023-03-06T08:02:55.341Z,7.58
2023-03-06T08:03:55.425Z,7.58
2023-03-06T08:04:55.254Z,7.60
2023-03-06T08:05:55.260Z,7.56
2023-03-06T08:06:55.236Z,7.58
2023-03-06T08:07:55.214Z,7.57
2023-03-06T08:08:55.234Z,7.57
2023-03-06T08:09:55.196Z,7.67
2023-03-06T08:10:55.175Z,7.72
2023-03-06T08:11:55.168Z,7.67
2023-03-06T08:12:55.152Z,7.63
2023-03-06T08:13:55.162Z,7.72
2023-03-06T08:14:55.143Z,7.85
2023-03-06T08:15:55.162Z,7.88
2023-03-06T08:16:55.113Z,7.95
2023-03-06T08:17:55.098Z,8.00
2023-03-06T08:18:55.081Z,7.98
2023-03-06T08:19:55.092Z,8.01
2023-03-06T08:20:55.063Z,8.06
2023-03-06T08:21:55.049Z,8.10
2023-03-06T08:22:55.042Z,8.10
2023-03-06T08:23:55.027Z,8.08
2023-03-06T08:24:55.016Z,8.08
2023-03-06T08:25:55.029Z,8.10
2023-03-06T08:26:54.989Z,8.08
2023-03-06T08:27:54.980Z,8.06
2023-03-06T08:28:54.972Z,7.95
2023-03-06T08:29:54.948Z,7.94
2023-03-06T08:30:54.996Z,7.95
2023-03-06T08:31:54.936Z,7.94
2023-03-06T08:32:54.916Z,7.76
2023-03-06T08:33:54.943Z,7.72
2023-03-06T08:34:54.903Z,7.75
2023-03-06T08:35:54.876Z,7.73
2023-03-06T08:36:54.878Z,7.80
2023-03-06T08:37:54.868Z,7.70
2023-03-06T08:38:54.854Z,7.83
2023-03-06T08:39:54.840Z,7.77
2023-03-06T08:40:54.821Z,7.58
2023-03-06T08:41:54.934Z,7.61
2023-03-06T08:42:54.797Z,7.75
2023-03-06T08:43:54.788Z,8.00
2023-03-06T08:44:54.767Z,8.10
2023-03-06T08:45:54.825Z,8.03
2023-03-06T08:46:54.757Z,7.97
2023-03-06T08:47:54.769Z,8.08
2023-03-06T08:48:54.731Z,8.27
2023-03-06T08:49:54.716Z,8.38
2023-03-06T08:50:54.700Z,8.26
2023-03-06T08:51:54.696Z,8.31
2023-03-06T08:52:54.675Z,8.37
2023-03-06T08:53:54.724Z,8.36
2023-03-06T08:54:54.656Z,8.45
2023-03-06T08:55:54.652Z,8.55
2023-03-06T08:56:54.635Z,8.56
2023-03-06T08:57:54.626Z,8.56
2023-03-06T08:58:54.609Z,8.63
2023-03-06T08:59:54.620Z,8.60
2023-03-06T09:00:54.665Z,8.67
2023-03-06T09:01:54.657Z,8.79
2023-03-06T09:02:54.565Z,8.87
2023-03-06T09:03:54.563Z,8.84
2023-03-06T09:04:54.538Z,8.74
2023-03-06T09:05:54.558Z,8.49
2023-03-06T09:06:55.537Z,8.58
2023-03-06T09:07:54.523Z,8.46
2023-03-06T09:08:54.499Z,8.30
2023-03-06T09:09:54.485Z,8.16
2023-03-06T09:11:01.564Z,8.30
2023-03-06T09:11:56.283Z,8.31
2023-03-06T09:12:55.009Z,8.30
2023-03-06T09:13:54.973Z,8.28
2023-03-06T09:14:54.432Z,8.46
2023-03-06T09:15:54.420Z,8.53
2023-03-06T09:16:54.463Z,8.46
2023-03-06T09:17:54.460Z,8.69
2023-03-06T09:18:54.398Z,8.88
2023-03-06T09:19:54.376Z,9.21
2023-03-06T09:20:54.369Z,9.06
2023-03-06T09:21:54.344Z,9.04
2023-03-06T09:22:54.366Z,9.19
2023-03-06T09:23:54.325Z,9.40
2023-03-06T09:24:54.317Z,9.47
2023-03-06T09:25:54.348Z,9.19
2023-03-06T09:26:54.299Z,9.41
2023-03-06T09:28:10.054Z,9.58
2023-03-06T09:28:55.307Z,9.74
2023-03-06T09:29:54.258Z,9.76
2023-03-06T09:30:54.341Z,9.66
2023-03-06T09:31:54.256Z,9.72
2023-03-06T09:32:54.228Z,9.97
2023-03-06T09:33:54.219Z,9.97
2023-03-06T09:34:54.220Z,9.99
2023-03-06T09:35:54.265Z,10.01
2023-03-06T09:36:57.036Z,10.07
2023-03-06T09:37:54.194Z,9.98
2023-03-06T09:38:54.169Z,10.01
2023-03-06T09:39:54.169Z,9.84
2023-03-06T09:40:54.153Z,9.69
2023-03-06T09:41:54.157Z,9.79
2023-03-06T09:42:54.128Z,9.72
2023-03-06T09:43:54.098Z,9.62
2023-03-06T09:44:54.121Z,9.66
2023-03-06T09:45:54.123Z,9.61
2023-03-06T09:46:54.078Z,9.54
2023-03-06T09:47:54.062Z,9.55
2023-03-06T09:48:54.058Z,9.39
2023-03-06T09:49:54.040Z,9.37
2023-03-06T09:50:54.083Z,9.23
2023-03-06T09:51:54.028Z,9.06
2023-03-06T09:52:54.000Z,9.00
2023-03-06T09:53:53.984Z,9.04
2023-03-06T09:54:53.982Z,9.10
2023-03-06T09:55:54.003Z,9.11
2023-03-06T09:56:53.974Z,8.87
2023-03-06T09:57:53.939Z,8.82
2023-03-06T09:58:53.934Z,8.84
2023-03-06T09:59:53.914Z,8.89
2023-03-06T10:00:53.917Z,9.06
2023-03-06T10:01:53.902Z,8.85
2023-03-06T10:02:54.005Z,8.56
2023-03-06T10:03:53.863Z,8.56
2023-03-06T10:04:53.910Z,8.33
2023-03-06T10:05:53.856Z,8.27
2023-03-06T10:06:53.842Z,8.23
2023-03-06T10:07:53.826Z,8.27
2023-03-06T10:08:53.853Z,8.48
2023-03-06T10:09:53.806Z,8.67
2023-03-06T10:10:53.792Z,8.78
2023-03-06T10:11:53.802Z,8.91
2023-03-06T10:12:53.773Z,9.18
2023-03-06T10:13:53.762Z,9.36
2023-03-06T10:14:53.762Z,9.44
2023-03-06T10:15:53.756Z,9.48
2023-03-06T10:16:53.731Z,9.37
2023-03-06T10:17:53.714Z,9.39
2023-03-06T10:18:53.713Z,9.66
2023-03-06T10:19:53.700Z,9.73
2023-03-06T10:20:53.698Z,9.80
2023-03-06T10:21:53.664Z,9.73
2023-03-06T10:23:01.366Z,9.64
2023-03-06T10:23:54.701Z,9.50
2023-03-06T10:24:53.646Z,9.25
2023-03-06T10:25:53.638Z,9.22
2023-03-06T10:26:53.699Z,9.22
2023-03-06T10:27:53.621Z,9.21
2023-03-06T10:28:53.593Z,9.41
2023-03-06T10:30:02.021Z,9.40
2023-03-06T10:30:54.611Z,9.54
2023-03-06T10:31:53.556Z,9.79
2023-03-06T10:32:53.586Z,9.59
2023-03-06T10:33:53.527Z,9.56
2023-03-06T10:34:53.536Z,9.61
2023-03-06T10:35:53.561Z,9.73
2023-03-06T10:36:53.526Z,9.83
2023-03-06T10:37:53.498Z,9.89
2023-03-06T10:38:53.511Z,9.69
2023-03-06T10:39:53.469Z,9.50
2023-03-06T10:40:53.464Z,9.54
2023-03-06T10:41:53.453Z,9.55
2023-03-06T10:43:05.088Z,9.58
2023-03-06T10:43:54.418Z,9.65
2023-03-06T10:44:53.410Z,9.80
2023-03-06T10:45:53.410Z,9.87
2023-03-06T10:46:53.524Z,9.76
2023-03-06T10:47:53.377Z,9.76
2023-03-06T10:48:53.379Z,9.73
2023-03-06T10:49:53.350Z,9.69
2023-03-06T10:50:53.348Z,9.59
2023-03-06T10:51:53.329Z,9.56
2023-03-06T10:52:53.327Z,9.48
2023-03-06T10:53:53.343Z,9.54
2023-03-06T10:54:53.321Z,9.76
2023-03-06T10:55:53.284Z,9.99
2023-03-06T10:56:53.293Z,10.16
2023-03-06T10:57:53.257Z,10.35
2023-03-06T10:58:53.248Z,10.33
2023-03-06T10:59:53.258Z,10.28
2023-03-06T11:00:53.238Z,10.31
2023-03-06T11:01:53.260Z,10.54
2023-03-06T11:02:53.204Z,10.74
2023-03-06T11:03:53.199Z,10.94
2023-03-06T11:04:53.265Z,10.75
2023-03-06T11:05:53.217Z,10.46
2023-03-06T11:06:53.160Z,10.49
2023-03-06T11:07:53.136Z,10.64
2023-03-06T11:08:53.146Z,10.87
2023-03-06T11:09:53.128Z,11.04
2023-03-06T11:10:53.136Z,10.54
2023-03-06T11:11:53.099Z,10.37
2023-03-06T11:12:53.089Z,10.46
2023-03-06T11:13:53.075Z,10.74
2023-03-06T11:14:53.067Z,11.15
2023-03-06T11:15:53.072Z,11.43
2023-03-06T11:16:53.144Z,11.43
2023-03-06T11:17:53.279Z,11.45
2023-03-06T11:18:53.016Z,11.27
2023-03-06T11:19:53.008Z,11.18
2023-03-06T11:20:53.285Z,11.43
2023-03-06T11:21:52.986Z,11.66
2023-03-06T11:22:53.035Z,11.69
2023-03-06T11:23:52.960Z,11.63
2023-03-06T11:24:52.954Z,11.45
2023-03-06T11:25:52.947Z,11.55
2023-03-06T11:26:52.939Z,11.47
2023-03-06T11:27:52.920Z,11.44
2023-03-06T11:28:52.987Z,11.22
2023-03-06T11:29:52.885Z,10.51
2023-03-06T11:30:52.876Z,10.23
2023-03-06T11:31:52.863Z,10.33
2023-03-06T11:32:52.854Z,10.34
2023-03-06T11:33:52.852Z,10.23
2023-03-06T11:34:52.843Z,10.09
2023-03-06T11:35:52.844Z,10.15
2023-03-06T11:36:52.804Z,10.16
2023-03-06T11:37:52.804Z,10.34
2023-03-06T11:38:52.807Z,10.40
2023-03-06T11:39:52.801Z,10.56
2023-03-06T11:40:52.779Z,10.56
2023-03-06T11:41:52.742Z,10.09
2023-03-06T11:42:52.747Z,10.07
2023-03-06T11:43:52.726Z,9.99
2023-03-06T11:44:52.732Z,9.98
2023-03-06T11:45:52.725Z,10.19
2023-03-06T11:46:52.765Z,10.54
2023-03-06T11:47:52.684Z,10.56
2023-03-06T11:48:52.671Z,10.41
2023-03-06T11:49:52.661Z,10.59
2023-03-06T11:50:52.654Z,10.51
2023-03-06T11:51:52.641Z,10.42
2023-03-06T11:52:52.621Z,10.51
2023-03-06T11:53:52.602Z,10.67
2023-03-06T11:54:52.603Z,11.10
2023-03-06T11:55:52.593Z,11.29
2023-03-06T11:56:52.603Z,11.44
2023-03-06T11:57:52.574Z,11.68
2023-03-06T11:58:52.572Z,11.51
2023-03-06T11:59:52.564Z,11.11
2023-03-06T12:00:52.550Z,11.23
2023-03-06T12:01:52.575Z,11.19
2023-03-06T12:02:52.545Z,11.23
2023-03-06T12:03:52.496Z,11.29
2023-03-06T12:04:52.600Z,11.14
2023-03-06T12:05:52.498Z,10.92
2023-03-06T12:06:52.465Z,10.61
2023-03-06T12:07:52.456Z,10.76
2023-03-06T12:08:52.468Z,10.89
2023-03-06T12:09:52.429Z,10.82
2023-03-06T12:10:52.463Z,10.41
2023-03-06T12:11:52.408Z,9.77
2023-03-06T12:12:52.395Z,9.84
2023-03-06T12:14:52.377Z,9.89
2023-03-06T12:15:52.372Z,9.95
2023-03-06T12:16:52.354Z,10.13
2023-03-06T12:17:52.340Z,10.41
2023-03-06T12:18:52.326Z,10.64
2023-03-06T12:19:52.374Z,10.72
2023-03-06T12:20:52.317Z,10.33
2023-03-06T12:21:52.289Z,10.01
2023-03-06T12:22:57.916Z,10.16
2023-03-06T12:23:53.279Z,10.23
2023-03-06T12:24:52.254Z,9.97
2023-03-06T12:25:52.264Z,10.22
2023-03-06T12:26:52.251Z,10.22
2023-03-06T12:27:52.226Z,10.25
2023-03-06T12:28:52.216Z,10.26
2023-03-06T12:29:52.204Z,10.16
2023-03-06T12:30:52.193Z,10.10
2023-03-06T12:31:52.258Z,10.13
2023-03-06T12:32:52.217Z,10.16
2023-03-06T12:33:52.155Z,10.28
2023-03-06T12:34:52.158Z,10.46
2023-03-06T12:35:52.180Z,10.41
2023-03-06T12:36:52.364Z,10.42
2023-03-06T12:37:52.132Z,9.99
2023-03-06T12:38:52.104Z,9.94
2023-03-06T12:39:52.083Z,9.76
2023-03-06T12:40:52.076Z,9.89
2023-03-06T12:41:52.067Z,9.97
2023-03-06T12:42:52.065Z,10.05
2023-03-06T12:43:52.058Z,10.05
2023-03-06T12:44:52.029Z,10.01
2023-03-06T12:45:52.084Z,10.05
2023-03-06T12:46:52.005Z,10.05
2023-03-06T12:47:52.004Z,10.05
2023-03-06T12:48:52.064Z,9.99
2023-03-06T12:49:51.970Z,10.09
2023-03-06T12:50:51.966Z,9.89
2023-03-06T12:51:51.966Z,9.89
2023-03-06T12:52:51.957Z,10.04
2023-03-06T12:53:51.928Z,10.05
2023-03-06T12:54:51.948Z,10.22
2023-03-06T12:55:51.913Z,9.99
2023-03-06T12:56:51.934Z,9.94
2023-03-06T12:57:51.888Z,9.92
2023-03-06T12:58:51.867Z,9.99
2023-03-06T12:59:51.869Z,10.20
2023-03-06T13:00:55.279Z,10.56
2023-03-06T13:01:52.996Z,10.63
2023-03-06T13:02:51.858Z,10.71
2023-03-06T13:03:51.819Z,10.72
2023-03-06T13:04:51.820Z,10.67
2023-03-06T13:05:52.093Z,10.82
2023-03-06T13:06:51.784Z,10.82
2023-03-06T13:07:51.811Z,10.92
2023-03-06T13:08:51.763Z,10.96
2023-03-06T13:09:51.752Z,11.05
2023-03-06T13:10:51.739Z,11.07
2023-03-06T13:11:51.750Z,11.07
2023-03-06T13:12:51.714Z,11.00
2023-03-06T13:13:51.706Z,11.04
2023-03-06T13:14:54.640Z,11.25